sensor_id;sensor_type;location;lat;lon;timestamp;temperature;humidity
52034;DHT22;38045;52.988;6.536;2023-07-16T00:00:46;17.50;99.90
52034;DHT22;38045;52.988;6.536;2023-07-16T00:03:12;17.50;99.90
52034;DHT22;38045;52.988;6.536;2023-07-16T00:05:39;17.50;99.90
52034;DHT22;38045;52.988;6.536;2023-07-16T00:08:05;17.40;99.90
52034;DHT22;38045;52.988;6.536;2023-07-16T00:10:36;17.40;99.90
52034;DHT22;38045;52.988;6.536;2023-07-16T00:13:05;17.30;99.90
52034;DHT22;38045;52.988;6.536;2023-07-16T00:15:31;17.30;99.90
52034;DHT22;38045;52.988;6.536;2023-07-16T00:17:57;17.20;99.90
52034;DHT22;38045;52.988;6.536;2023-07-16T00:20:22;17.20;99.90
52034;DHT22;38045;52.988;6.536;2023-07-16T00:22:51;17.20;99.90
52034;DHT22;38045;52.988;6.536;2023-07-16T00:25:17;17.20;99.90
52034;DHT22;38045;52.988;6.536;2023-07-16T00:27:43;17.20;99.90
52034;DHT22;38045;52.988;6.536;2023-07-16T00:30:09;17.20;99.90
52034;DHT22;38045;52.988;6.536;2023-07-16T00:32:35;17.20;99.90
52034;DHT22;38045;52.988;6.536;2023-07-16T00:35:01;17.20;99.90
52034;DHT22;38045;52.988;6.536;2023-07-16T00:37:27;17.20;99.90
52034;DHT22;38045;52.988;6.536;2023-07-16T00:39:53;17.20;99.90
52034;DHT22;38045;52.988;6.536;2023-07-16T00:42:18;17.20;99.90
52034;DHT22;38045;52.988;6.536;2023-07-16T00:44:44;17.20;99.90
52034;DHT22;38045;52.988;6.536;2023-07-16T00:47:10;17.20;99.90
52034;DHT22;38045;52.988;6.536;2023-07-16T00:49:37;17.30;99.90
52034;DHT22;38045;52.988;6.536;2023-07-16T00:52:04;17.20;99.90
52034;DHT22;38045;52.988;6.536;2023-07-16T00:54:31;17.20;99.90
52034;DHT22;38045;52.988;6.536;2023-07-16T00:56:57;17.20;99.90
52034;DHT22;38045;52.988;6.536;2023-07-16T00:59:22;17.20;99.90
52034;DHT22;38045;52.988;6.536;2023-07-16T01:01:48;17.10;99.90
52034;DHT22;38045;52.988;6.536;2023-07-16T01:04:14;17.10;99.90
52034;DHT22;38045;52.988;6.536;2023-07-16T01:06:41;17.10;99.90
52034;DHT22;38045;52.988;6.536;2023-07-16T01:09:16;17.10;99.90
52034;DHT22;38045;52.988;6.536;2023-07-16T01:11:43;17.00;99.90
52034;DHT22;38045;52.988;6.536;2023-07-16T01:14:10;17.00;99.90
52034;DHT22;38045;52.988;6.536;2023-07-16T01:16:36;17.00;99.90
52034;DHT22;38045;52.988;6.536;2023-07-16T01:19:02;16.90;99.90
52034;DHT22;38045;52.988;6.536;2023-07-16T01:21:38;16.90;99.90
52034;DHT22;38045;52.988;6.536;2023-07-16T01:30:01;16.90;99.90
52034;DHT22;38045;52.988;6.536;2023-07-16T01:32:28;16.80;99.90
52034;DHT22;38045;52.988;6.536;2023-07-16T01:34:55;16.80;99.90
52034;DHT22;38045;52.988;6.536;2023-07-16T01:37:21;16.70;99.90
52034;DHT22;38045;52.988;6.536;2023-07-16T01:39:47;16.70;99.90
52034;DHT22;38045;52.988;6.536;2023-07-16T01:42:12;16.70;99.90
52034;DHT22;38045;52.988;6.536;2023-07-16T01:44:38;16.70;99.90
52034;DHT22;38045;52.988;6.536;2023-07-16T01:49:34;16.70;99.90
52034;DHT22;38045;52.988;6.536;2023-07-16T01:52:01;16.80;99.90
52034;DHT22;38045;52.988;6.536;2023-07-16T01:54:28;16.80;99.90
52034;DHT22;38045;52.988;6.536;2023-07-16T01:56:54;16.80;99.90
52034;DHT22;38045;52.988;6.536;2023-07-16T01:59:20;16.80;99.90
52034;DHT22;38045;52.988;6.536;2023-07-16T02:01:45;16.80;99.90
52034;DHT22;38045;52.988;6.536;2023-07-16T02:04:11;16.90;99.90
52034;DHT22;38045;52.988;6.536;2023-07-16T02:06:36;17.00;99.90
52034;DHT22;38045;52.988;6.536;2023-07-16T02:09:02;17.00;99.90
52034;DHT22;38045;52.988;6.536;2023-07-16T02:11:28;17.00;99.90
52034;DHT22;38045;52.988;6.536;2023-07-16T02:13:54;17.10;99.90
52034;DHT22;38045;52.988;6.536;2023-07-16T02:16:20;17.10;99.90
52034;DHT22;38045;52.988;6.536;2023-07-16T02:18:45;17.10;99.90
52034;DHT22;38045;52.988;6.536;2023-07-16T02:21:11;17.00;99.90
52034;DHT22;38045;52.988;6.536;2023-07-16T02:23:37;17.10;99.90
52034;DHT22;38045;52.988;6.536;2023-07-16T02:26:02;17.10;99.90
52034;DHT22;38045;52.988;6.536;2023-07-16T02:28:28;17.20;99.90
52034;DHT22;38045;52.988;6.536;2023-07-16T02:30:54;17.20;99.90
52034;DHT22;38045;52.988;6.536;2023-07-16T02:33:19;17.10;99.90
52034;DHT22;38045;52.988;6.536;2023-07-16T02:35:49;17.20;99.90
52034;DHT22;38045;52.988;6.536;2023-07-16T02:38:15;17.20;99.90
52034;DHT22;38045;52.988;6.536;2023-07-16T02:40:45;17.20;99.90
52034;DHT22;38045;52.988;6.536;2023-07-16T02:43:11;17.20;99.90
52034;DHT22;38045;52.988;6.536;2023-07-16T02:45:37;17.20;99.90
52034;DHT22;38045;52.988;6.536;2023-07-16T02:48:04;17.20;99.90
52034;DHT22;38045;52.988;6.536;2023-07-16T02:50:29;17.20;99.90
52034;DHT22;38045;52.988;6.536;2023-07-16T02:52:55;17.30;99.90
52034;DHT22;38045;52.988;6.536;2023-07-16T02:55:21;17.20;99.90
52034;DHT22;38045;52.988;6.536;2023-07-16T02:57:46;17.30;99.90
52034;DHT22;38045;52.988;6.536;2023-07-16T03:00:12;17.20;99.90
52034;DHT22;38045;52.988;6.536;2023-07-16T03:02:38;17.20;99.90
52034;DHT22;38045;52.988;6.536;2023-07-16T03:05:04;17.20;99.90
52034;DHT22;38045;52.988;6.536;2023-07-16T03:07:29;17.20;99.90
52034;DHT22;38045;52.988;6.536;2023-07-16T03:09:55;17.10;99.90
52034;DHT22;38045;52.988;6.536;2023-07-16T03:12:20;17.10;99.90
52034;DHT22;38045;52.988;6.536;2023-07-16T03:14:47;17.10;99.90
52034;DHT22;38045;52.988;6.536;2023-07-16T03:17:13;17.10;99.90
52034;DHT22;38045;52.988;6.536;2023-07-16T03:19:38;17.10;99.90
52034;DHT22;38045;52.988;6.536;2023-07-16T03:22:04;17.10;99.90
52034;DHT22;38045;52.988;6.536;2023-07-16T03:24:30;17.10;99.90
52034;DHT22;38045;52.988;6.536;2023-07-16T03:26:55;17.00;99.90
52034;DHT22;38045;52.988;6.536;2023-07-16T03:29:21;17.10;99.90
52034;DHT22;38045;52.988;6.536;2023-07-16T03:31:46;17.00;99.90
52034;DHT22;38045;52.988;6.536;2023-07-16T03:34:12;17.00;99.90
52034;DHT22;38045;52.988;6.536;2023-07-16T03:36:37;16.90;99.90
52034;DHT22;38045;52.988;6.536;2023-07-16T03:39:03;16.90;99.90
52034;DHT22;38045;52.988;6.536;2023-07-16T03:41:29;16.90;99.90
52034;DHT22;38045;52.988;6.536;2023-07-16T03:43:54;16.90;99.90
52034;DHT22;38045;52.988;6.536;2023-07-16T03:46:20;16.90;99.90
52034;DHT22;38045;52.988;6.536;2023-07-16T03:48:46;16.80;99.90
52034;DHT22;38045;52.988;6.536;2023-07-16T03:51:11;16.80;99.90
52034;DHT22;38045;52.988;6.536;2023-07-16T03:53:38;16.80;99.90
52034;DHT22;38045;52.988;6.536;2023-07-16T03:56:03;16.80;99.90
52034;DHT22;38045;52.988;6.536;2023-07-16T03:58:29;16.80;99.90
52034;DHT22;38045;52.988;6.536;2023-07-16T04:00:55;16.90;99.90
52034;DHT22;38045;52.988;6.536;2023-07-16T04:03:20;16.80;99.90
52034;DHT22;38045;52.988;6.536;2023-07-16T04:05:46;16.80;99.90
52034;DHT22;38045;52.988;6.536;2023-07-16T04:08:12;16.80;99.90
52034;DHT22;38045;52.988;6.536;2023-07-16T04:10:38;16.80;99.90
52034;DHT22;38045;52.988;6.536;2023-07-16T04:13:04;16.80;99.90
52034;DHT22;38045;52.988;6.536;2023-07-16T04:15:29;16.90;99.90
52034;DHT22;38045;52.988;6.536;2023-07-16T04:17:55;16.80;99.90
52034;DHT22;38045;52.988;6.536;2023-07-16T04:20:21;16.80;99.90
52034;DHT22;38045;52.988;6.536;2023-07-16T04:22:46;16.80;99.90
52034;DHT22;38045;52.988;6.536;2023-07-16T04:25:12;16.90;99.90
52034;DHT22;38045;52.988;6.536;2023-07-16T04:27:39;16.80;99.90
52034;DHT22;38045;52.988;6.536;2023-07-16T04:30:07;16.90;99.90
52034;DHT22;38045;52.988;6.536;2023-07-16T04:32:33;16.90;99.90
52034;DHT22;38045;52.988;6.536;2023-07-16T04:34:58;16.90;99.90
52034;DHT22;38045;52.988;6.536;2023-07-16T04:37:24;16.90;99.90
52034;DHT22;38045;52.988;6.536;2023-07-16T04:39:50;17.00;99.90
52034;DHT22;38045;52.988;6.536;2023-07-16T04:42:15;17.00;99.90
52034;DHT22;38045;52.988;6.536;2023-07-16T04:44:42;17.00;99.90
52034;DHT22;38045;52.988;6.536;2023-07-16T04:47:07;17.00;99.90
52034;DHT22;38045;52.988;6.536;2023-07-16T04:49:35;17.10;99.90
52034;DHT22;38045;52.988;6.536;2023-07-16T04:52:01;17.00;99.90
52034;DHT22;38045;52.988;6.536;2023-07-16T04:54:27;17.10;99.90
52034;DHT22;38045;52.988;6.536;2023-07-16T04:56:53;17.10;99.90
52034;DHT22;38045;52.988;6.536;2023-07-16T04:59:18;17.20;99.90
52034;DHT22;38045;52.988;6.536;2023-07-16T05:01:44;17.10;99.90
52034;DHT22;38045;52.988;6.536;2023-07-16T05:04:09;17.20;99.90
52034;DHT22;38045;52.988;6.536;2023-07-16T05:06:35;17.10;99.90
52034;DHT22;38045;52.988;6.536;2023-07-16T05:09:01;17.20;99.90
52034;DHT22;38045;52.988;6.536;2023-07-16T05:11:26;17.20;99.90
52034;DHT22;38045;52.988;6.536;2023-07-16T05:13:52;17.20;99.90
52034;DHT22;38045;52.988;6.536;2023-07-16T05:16:17;17.20;99.90
52034;DHT22;38045;52.988;6.536;2023-07-16T05:18:43;17.30;99.90
52034;DHT22;38045;52.988;6.536;2023-07-16T05:21:09;17.30;99.90
52034;DHT22;38045;52.988;6.536;2023-07-16T05:23:34;17.30;99.90
52034;DHT22;38045;52.988;6.536;2023-07-16T05:26:00;17.30;99.90
52034;DHT22;38045;52.988;6.536;2023-07-16T05:28:25;17.40;99.90
52034;DHT22;38045;52.988;6.536;2023-07-16T05:31:01;17.40;99.90
52034;DHT22;38045;52.988;6.536;2023-07-16T05:33:27;17.50;99.90
52034;DHT22;38045;52.988;6.536;2023-07-16T05:35:53;17.50;99.90
52034;DHT22;38045;52.988;6.536;2023-07-16T05:38:19;17.60;99.90
52034;DHT22;38045;52.988;6.536;2023-07-16T05:40:44;17.60;99.90
52034;DHT22;38045;52.988;6.536;2023-07-16T05:43:10;17.60;99.90
52034;DHT22;38045;52.988;6.536;2023-07-16T05:45:36;17.70;99.90
52034;DHT22;38045;52.988;6.536;2023-07-16T05:48:02;17.70;99.90
52034;DHT22;38045;52.988;6.536;2023-07-16T05:50:29;17.70;99.90
52034;DHT22;38045;52.988;6.536;2023-07-16T05:52:54;17.80;99.90
52034;DHT22;38045;52.988;6.536;2023-07-16T05:55:20;17.80;99.90
52034;DHT22;38045;52.988;6.536;2023-07-16T05:57:45;17.80;99.90
52034;DHT22;38045;52.988;6.536;2023-07-16T06:00:12;17.80;99.90
52034;DHT22;38045;52.988;6.536;2023-07-16T06:02:39;17.90;99.90
52034;DHT22;38045;52.988;6.536;2023-07-16T06:05:05;17.90;99.90
52034;DHT22;38045;52.988;6.536;2023-07-16T06:07:31;18.00;99.90
52034;DHT22;38045;52.988;6.536;2023-07-16T06:09:57;18.10;99.90
52034;DHT22;38045;52.988;6.536;2023-07-16T06:12:23;18.10;99.90
52034;DHT22;38045;52.988;6.536;2023-07-16T06:14:49;18.20;99.90
52034;DHT22;38045;52.988;6.536;2023-07-16T06:17:14;18.30;99.90
52034;DHT22;38045;52.988;6.536;2023-07-16T06:19:40;18.20;99.90
52034;DHT22;38045;52.988;6.536;2023-07-16T06:22:05;18.20;99.90
52034;DHT22;38045;52.988;6.536;2023-07-16T06:24:31;18.20;99.90
52034;DHT22;38045;52.988;6.536;2023-07-16T06:26:57;18.30;99.90
52034;DHT22;38045;52.988;6.536;2023-07-16T06:29:22;18.30;99.90
52034;DHT22;38045;52.988;6.536;2023-07-16T06:31:55;18.50;99.90
52034;DHT22;38045;52.988;6.536;2023-07-16T06:34:22;18.50;99.90
52034;DHT22;38045;52.988;6.536;2023-07-16T06:36:48;18.40;99.90
52034;DHT22;38045;52.988;6.536;2023-07-16T06:39:13;18.40;99.90
52034;DHT22;38045;52.988;6.536;2023-07-16T06:41:39;18.40;99.90
52034;DHT22;38045;52.988;6.536;2023-07-16T06:44:05;18.40;99.90
52034;DHT22;38045;52.988;6.536;2023-07-16T06:46:30;18.50;99.90
52034;DHT22;38045;52.988;6.536;2023-07-16T06:48:56;18.50;99.90
52034;DHT22;38045;52.988;6.536;2023-07-16T06:51:21;18.60;99.90
52034;DHT22;38045;52.988;6.536;2023-07-16T06:53:47;18.70;99.90
52034;DHT22;38045;52.988;6.536;2023-07-16T06:56:13;18.80;99.90
52034;DHT22;38045;52.988;6.536;2023-07-16T06:58:38;18.70;99.90
52034;DHT22;38045;52.988;6.536;2023-07-16T07:01:04;18.70;99.90
52034;DHT22;38045;52.988;6.536;2023-07-16T07:03:29;18.60;99.90
52034;DHT22;38045;52.988;6.536;2023-07-16T07:05:55;18.60;99.90
52034;DHT22;38045;52.988;6.536;2023-07-16T07:08:21;18.50;99.90
52034;DHT22;38045;52.988;6.536;2023-07-16T07:10:49;18.50;99.90
52034;DHT22;38045;52.988;6.536;2023-07-16T07:13:15;18.50;99.90
52034;DHT22;38045;52.988;6.536;2023-07-16T07:15:41;18.50;99.90
52034;DHT22;38045;52.988;6.536;2023-07-16T07:18:07;18.50;99.90
52034;DHT22;38045;52.988;6.536;2023-07-16T07:20:33;18.60;99.90
52034;DHT22;38045;52.988;6.536;2023-07-16T07:22:58;18.80;99.90
52034;DHT22;38045;52.988;6.536;2023-07-16T07:25:27;18.80;99.90
52034;DHT22;38045;52.988;6.536;2023-07-16T07:27:53;18.90;99.90
52034;DHT22;38045;52.988;6.536;2023-07-16T07:30:19;18.90;99.90
52034;DHT22;38045;52.988;6.536;2023-07-16T07:32:45;18.90;99.90
52034;DHT22;38045;52.988;6.536;2023-07-16T07:35:11;18.90;99.90
52034;DHT22;38045;52.988;6.536;2023-07-16T07:37:36;18.90;99.90
52034;DHT22;38045;52.988;6.536;2023-07-16T07:40:02;18.90;99.90
52034;DHT22;38045;52.988;6.536;2023-07-16T07:42:29;18.90;99.90
52034;DHT22;38045;52.988;6.536;2023-07-16T07:44:54;18.90;99.90
52034;DHT22;38045;52.988;6.536;2023-07-16T07:47:20;18.90;99.90
52034;DHT22;38045;52.988;6.536;2023-07-16T07:49:46;19.00;99.90
52034;DHT22;38045;52.988;6.536;2023-07-16T07:52:11;19.10;99.90
52034;DHT22;38045;52.988;6.536;2023-07-16T07:54:37;19.10;99.90
52034;DHT22;38045;52.988;6.536;2023-07-16T07:57:04;19.20;99.90
52034;DHT22;38045;52.988;6.536;2023-07-16T07:59:30;19.20;99.90
52034;DHT22;38045;52.988;6.536;2023-07-16T08:01:56;19.20;99.90
52034;DHT22;38045;52.988;6.536;2023-07-16T08:04:22;19.10;99.90
52034;DHT22;38045;52.988;6.536;2023-07-16T08:06:50;19.10;99.90
52034;DHT22;38045;52.988;6.536;2023-07-16T08:09:15;19.10;99.90
52034;DHT22;38045;52.988;6.536;2023-07-16T08:11:41;19.10;99.90
52034;DHT22;38045;52.988;6.536;2023-07-16T08:14:07;19.10;99.90
52034;DHT22;38045;52.988;6.536;2023-07-16T08:16:32;19.20;99.90
52034;DHT22;38045;52.988;6.536;2023-07-16T08:18:58;19.30;99.90
52034;DHT22;38045;52.988;6.536;2023-07-16T08:21:24;19.40;99.90
52034;DHT22;38045;52.988;6.536;2023-07-16T08:23:50;19.50;99.90
52034;DHT22;38045;52.988;6.536;2023-07-16T08:26:16;19.60;99.90
52034;DHT22;38045;52.988;6.536;2023-07-16T08:28:42;19.50;99.90
52034;DHT22;38045;52.988;6.536;2023-07-16T08:31:07;19.50;99.90
52034;DHT22;38045;52.988;6.536;2023-07-16T08:33:33;19.60;99.90
52034;DHT22;38045;52.988;6.536;2023-07-16T08:35:59;19.60;99.90
52034;DHT22;38045;52.988;6.536;2023-07-16T08:38:24;19.60;99.90
52034;DHT22;38045;52.988;6.536;2023-07-16T08:40:50;19.60;99.90
52034;DHT22;38045;52.988;6.536;2023-07-16T08:43:16;19.50;99.90
52034;DHT22;38045;52.988;6.536;2023-07-16T08:45:42;19.50;99.90
52034;DHT22;38045;52.988;6.536;2023-07-16T08:48:11;19.60;99.90
52034;DHT22;38045;52.988;6.536;2023-07-16T08:50:38;19.80;99.90
52034;DHT22;38045;52.988;6.536;2023-07-16T08:53:07;20.00;99.90
52034;DHT22;38045;52.988;6.536;2023-07-16T08:55:33;20.20;99.90
52034;DHT22;38045;52.988;6.536;2023-07-16T08:58:01;20.30;99.90
52034;DHT22;38045;52.988;6.536;2023-07-16T09:00:27;20.40;99.90
52034;DHT22;38045;52.988;6.536;2023-07-16T09:02:53;20.40;99.90
52034;DHT22;38045;52.988;6.536;2023-07-16T09:05:20;20.40;99.90
52034;DHT22;38045;52.988;6.536;2023-07-16T09:07:46;20.40;99.90
52034;DHT22;38045;52.988;6.536;2023-07-16T09:10:12;20.40;99.90
52034;DHT22;38045;52.988;6.536;2023-07-16T09:12:44;20.30;99.90
52034;DHT22;38045;52.988;6.536;2023-07-16T09:15:13;20.20;99.90
52034;DHT22;38045;52.988;6.536;2023-07-16T09:17:39;20.10;99.90
52034;DHT22;38045;52.988;6.536;2023-07-16T09:20:05;20.00;99.90
52034;DHT22;38045;52.988;6.536;2023-07-16T09:22:33;19.90;99.90
52034;DHT22;38045;52.988;6.536;2023-07-16T09:25:00;19.90;99.90
52034;DHT22;38045;52.988;6.536;2023-07-16T09:27:30;19.80;99.90
52034;DHT22;38045;52.988;6.536;2023-07-16T09:29:56;19.70;99.90
52034;DHT22;38045;52.988;6.536;2023-07-16T09:32:22;19.80;99.90
52034;DHT22;38045;52.988;6.536;2023-07-16T09:34:50;19.80;99.90
52034;DHT22;38045;52.988;6.536;2023-07-16T09:37:18;19.90;99.90
52034;DHT22;38045;52.988;6.536;2023-07-16T09:39:46;20.00;99.90
52034;DHT22;38045;52.988;6.536;2023-07-16T09:42:12;20.10;99.90
52034;DHT22;38045;52.988;6.536;2023-07-16T09:44:39;20.20;99.90
52034;DHT22;38045;52.988;6.536;2023-07-16T09:47:07;20.40;99.90
52034;DHT22;38045;52.988;6.536;2023-07-16T09:49:32;20.50;99.90
52034;DHT22;38045;52.988;6.536;2023-07-16T09:51:58;20.60;99.90
52034;DHT22;38045;52.988;6.536;2023-07-16T09:54:26;20.60;99.90
52034;DHT22;38045;52.988;6.536;2023-07-16T09:56:57;20.60;99.90
52034;DHT22;38045;52.988;6.536;2023-07-16T09:59:30;20.50;99.90
52034;DHT22;38045;52.988;6.536;2023-07-16T10:01:57;20.40;99.90
52034;DHT22;38045;52.988;6.536;2023-07-16T10:04:23;20.40;99.90
52034;DHT22;38045;52.988;6.536;2023-07-16T10:06:53;20.60;99.90
52034;DHT22;38045;52.988;6.536;2023-07-16T10:09:41;20.70;99.90
52034;DHT22;38045;52.988;6.536;2023-07-16T10:14:40;20.60;99.90
52034;DHT22;38045;52.988;6.536;2023-07-16T10:17:06;20.50;99.90
52034;DHT22;38045;52.988;6.536;2023-07-16T10:19:45;20.40;99.90
52034;DHT22;38045;52.988;6.536;2023-07-16T10:22:11;20.40;99.90
52034;DHT22;38045;52.988;6.536;2023-07-16T10:24:39;20.40;99.90
52034;DHT22;38045;52.988;6.536;2023-07-16T10:27:04;20.70;99.90
52034;DHT22;38045;52.988;6.536;2023-07-16T10:29:30;20.80;99.90
52034;DHT22;38045;52.988;6.536;2023-07-16T10:31:57;20.90;99.90
52034;DHT22;38045;52.988;6.536;2023-07-16T10:34:23;20.90;99.90
52034;DHT22;38045;52.988;6.536;2023-07-16T10:36:50;21.20;99.90
52034;DHT22;38045;52.988;6.536;2023-07-16T10:39:16;21.40;99.90
52034;DHT22;38045;52.988;6.536;2023-07-16T10:41:42;21.50;99.90
52034;DHT22;38045;52.988;6.536;2023-07-16T10:46:38;21.40;99.90
52034;DHT22;38045;52.988;6.536;2023-07-16T10:49:03;21.30;99.90
52034;DHT22;38045;52.988;6.536;2023-07-16T10:51:29;21.20;99.90
52034;DHT22;38045;52.988;6.536;2023-07-16T10:53:56;21.00;99.90
52034;DHT22;38045;52.988;6.536;2023-07-16T10:56:22;21.00;99.90
52034;DHT22;38045;52.988;6.536;2023-07-16T10:58:48;20.90;99.90
52034;DHT22;38045;52.988;6.536;2023-07-16T11:01:14;20.80;99.90
52034;DHT22;38045;52.988;6.536;2023-07-16T11:03:40;20.90;99.90
52034;DHT22;38045;52.988;6.536;2023-07-16T11:06:09;21.00;99.90
52034;DHT22;38045;52.988;6.536;2023-07-16T11:08:37;21.10;99.90
52034;DHT22;38045;52.988;6.536;2023-07-16T11:11:02;21.00;99.90
52034;DHT22;38045;52.988;6.536;2023-07-16T11:13:31;20.90;99.90
52034;DHT22;38045;52.988;6.536;2023-07-16T11:15:57;20.90;99.90
52034;DHT22;38045;52.988;6.536;2023-07-16T11:18:26;20.90;99.90
52034;DHT22;38045;52.988;6.536;2023-07-16T11:20:52;20.90;99.90
52034;DHT22;38045;52.988;6.536;2023-07-16T11:23:18;20.80;99.90
52034;DHT22;38045;52.988;6.536;2023-07-16T11:25:51;20.80;99.90
52034;DHT22;38045;52.988;6.536;2023-07-16T11:28:17;20.90;99.90
52034;DHT22;38045;52.988;6.536;2023-07-16T11:30:42;20.80;99.90
52034;DHT22;38045;52.988;6.536;2023-07-16T11:33:11;20.70;99.90
52034;DHT22;38045;52.988;6.536;2023-07-16T11:35:38;20.60;99.90
52034;DHT22;38045;52.988;6.536;2023-07-16T11:38:07;20.50;99.90
52034;DHT22;38045;52.988;6.536;2023-07-16T11:40:36;20.40;99.90
52034;DHT22;38045;52.988;6.536;2023-07-16T11:43:09;20.50;99.90
52034;DHT22;38045;52.988;6.536;2023-07-16T11:45:35;20.40;99.90
52034;DHT22;38045;52.988;6.536;2023-07-16T11:48:01;20.40;99.90
52034;DHT22;38045;52.988;6.536;2023-07-16T11:50:28;20.40;99.90
52034;DHT22;38045;52.988;6.536;2023-07-16T11:53:00;20.20;99.90
52034;DHT22;38045;52.988;6.536;2023-07-16T11:55:26;20.20;99.90
52034;DHT22;38045;52.988;6.536;2023-07-16T11:57:52;20.20;99.90
52034;DHT22;38045;52.988;6.536;2023-07-16T12:00:18;20.20;99.90
52034;DHT22;38045;52.988;6.536;2023-07-16T12:02:44;20.40;99.90
52034;DHT22;38045;52.988;6.536;2023-07-16T12:05:20;20.50;99.90
52034;DHT22;38045;52.988;6.536;2023-07-16T12:07:46;20.40;99.90
52034;DHT22;38045;52.988;6.536;2023-07-16T12:10:11;20.50;99.90
52034;DHT22;38045;52.988;6.536;2023-07-16T12:12:37;20.50;99.90
52034;DHT22;38045;52.988;6.536;2023-07-16T12:15:07;20.60;99.90
52034;DHT22;38045;52.988;6.536;2023-07-16T12:17:33;20.60;99.90
52034;DHT22;38045;52.988;6.536;2023-07-16T12:19:59;21.00;99.90
52034;DHT22;38045;52.988;6.536;2023-07-16T12:22:24;21.40;99.90
52034;DHT22;38045;52.988;6.536;2023-07-16T12:24:50;21.50;99.90
52034;DHT22;38045;52.988;6.536;2023-07-16T12:27:17;21.40;99.90
52034;DHT22;38045;52.988;6.536;2023-07-16T12:29:43;21.10;99.90
52034;DHT22;38045;52.988;6.536;2023-07-16T12:32:09;20.90;99.90
52034;DHT22;38045;52.988;6.536;2023-07-16T12:34:35;20.70;99.90
52034;DHT22;38045;52.988;6.536;2023-07-16T12:37:01;20.60;99.90
52034;DHT22;38045;52.988;6.536;2023-07-16T12:39:27;20.60;99.90
52034;DHT22;38045;52.988;6.536;2023-07-16T12:41:52;20.60;99.90
52034;DHT22;38045;52.988;6.536;2023-07-16T12:44:18;20.90;99.90
52034;DHT22;38045;52.988;6.536;2023-07-16T12:46:44;21.00;99.90
52034;DHT22;38045;52.988;6.536;2023-07-16T12:49:09;21.00;99.90
52034;DHT22;38045;52.988;6.536;2023-07-16T12:51:35;20.90;99.90
52034;DHT22;38045;52.988;6.536;2023-07-16T12:54:00;20.70;99.90
52034;DHT22;38045;52.988;6.536;2023-07-16T12:56:26;20.60;99.90
52034;DHT22;38045;52.988;6.536;2023-07-16T12:58:52;20.40;99.90
52034;DHT22;38045;52.988;6.536;2023-07-16T13:01:18;20.40;99.90
52034;DHT22;38045;52.988;6.536;2023-07-16T13:03:43;20.40;99.90
52034;DHT22;38045;52.988;6.536;2023-07-16T13:06:09;20.40;99.90
52034;DHT22;38045;52.988;6.536;2023-07-16T13:08:35;20.50;99.90
52034;DHT22;38045;52.988;6.536;2023-07-16T13:11:01;20.60;99.90
52034;DHT22;38045;52.988;6.536;2023-07-16T13:13:27;20.60;99.90
52034;DHT22;38045;52.988;6.536;2023-07-16T13:15:54;20.70;99.90
52034;DHT22;38045;52.988;6.536;2023-07-16T13:18:20;20.60;99.90
52034;DHT22;38045;52.988;6.536;2023-07-16T13:20:45;20.50;99.90
52034;DHT22;38045;52.988;6.536;2023-07-16T13:23:11;20.50;99.90
52034;DHT22;38045;52.988;6.536;2023-07-16T13:25:36;20.40;99.90
52034;DHT22;38045;52.988;6.536;2023-07-16T13:28:05;20.30;99.90
52034;DHT22;38045;52.988;6.536;2023-07-16T13:30:30;20.10;99.90
52034;DHT22;38045;52.988;6.536;2023-07-16T13:32:56;20.00;99.90
52034;DHT22;38045;52.988;6.536;2023-07-16T13:35:23;20.00;99.90
52034;DHT22;38045;52.988;6.536;2023-07-16T13:37:48;20.10;99.90
52034;DHT22;38045;52.988;6.536;2023-07-16T13:40:14;20.20;99.90
52034;DHT22;38045;52.988;6.536;2023-07-16T13:42:40;20.30;99.90
52034;DHT22;38045;52.988;6.536;2023-07-16T13:45:06;20.40;99.90
52034;DHT22;38045;52.988;6.536;2023-07-16T13:47:32;20.70;99.90
52034;DHT22;38045;52.988;6.536;2023-07-16T13:49:58;21.10;99.90
52034;DHT22;38045;52.988;6.536;2023-07-16T13:52:23;21.20;99.90
52034;DHT22;38045;52.988;6.536;2023-07-16T13:54:49;21.30;99.90
52034;DHT22;38045;52.988;6.536;2023-07-16T13:57:15;21.20;99.90
52034;DHT22;38045;52.988;6.536;2023-07-16T13:59:40;21.40;99.90
52034;DHT22;38045;52.988;6.536;2023-07-16T14:02:06;21.60;99.90
52034;DHT22;38045;52.988;6.536;2023-07-16T14:04:32;21.80;99.90
52034;DHT22;38045;52.988;6.536;2023-07-16T14:06:59;21.80;99.90
52034;DHT22;38045;52.988;6.536;2023-07-16T14:09:24;21.70;99.90
52034;DHT22;38045;52.988;6.536;2023-07-16T14:11:50;21.60;99.90
52034;DHT22;38045;52.988;6.536;2023-07-16T14:14:16;21.40;99.90
52034;DHT22;38045;52.988;6.536;2023-07-16T14:16:42;21.30;99.90
52034;DHT22;38045;52.988;6.536;2023-07-16T14:19:09;21.30;99.90
52034;DHT22;38045;52.988;6.536;2023-07-16T14:21:34;21.20;99.90
52034;DHT22;38045;52.988;6.536;2023-07-16T14:24:00;21.30;99.90
52034;DHT22;38045;52.988;6.536;2023-07-16T14:26:26;21.50;99.90
52034;DHT22;38045;52.988;6.536;2023-07-16T14:28:51;21.70;99.90
52034;DHT22;38045;52.988;6.536;2023-07-16T14:31:17;21.70;99.90
52034;DHT22;38045;52.988;6.536;2023-07-16T14:33:42;21.70;99.90
52034;DHT22;38045;52.988;6.536;2023-07-16T14:36:08;21.60;99.90
52034;DHT22;38045;52.988;6.536;2023-07-16T14:38:34;21.70;99.90
52034;DHT22;38045;52.988;6.536;2023-07-16T14:40:59;21.80;99.90
52034;DHT22;38045;52.988;6.536;2023-07-16T14:43:25;21.70;99.90
52034;DHT22;38045;52.988;6.536;2023-07-16T14:45:51;21.70;99.90
52034;DHT22;38045;52.988;6.536;2023-07-16T14:48:17;21.70;99.90
52034;DHT22;38045;52.988;6.536;2023-07-16T14:50:42;21.70;99.90
52034;DHT22;38045;52.988;6.536;2023-07-16T14:53:08;21.60;99.90
52034;DHT22;38045;52.988;6.536;2023-07-16T14:55:33;21.60;99.90
52034;DHT22;38045;52.988;6.536;2023-07-16T14:57:59;21.60;99.90
52034;DHT22;38045;52.988;6.536;2023-07-16T15:00:25;21.60;99.90
52034;DHT22;38045;52.988;6.536;2023-07-16T15:02:51;21.70;99.90
52034;DHT22;38045;52.988;6.536;2023-07-16T15:05:17;21.80;99.90
52034;DHT22;38045;52.988;6.536;2023-07-16T15:07:43;21.80;99.90
52034;DHT22;38045;52.988;6.536;2023-07-16T15:10:09;21.70;99.80
52034;DHT22;38045;52.988;6.536;2023-07-16T15:12:35;21.50;99.90
52034;DHT22;38045;52.988;6.536;2023-07-16T15:15:00;21.60;99.90
52034;DHT22;38045;52.988;6.536;2023-07-16T15:17:26;21.60;99.90
52034;DHT22;38045;52.988;6.536;2023-07-16T15:19:53;21.70;99.70
52034;DHT22;38045;52.988;6.536;2023-07-16T15:22:18;21.80;99.20
52034;DHT22;38045;52.988;6.536;2023-07-16T15:24:46;21.90;99.60
52034;DHT22;38045;52.988;6.536;2023-07-16T15:27:12;21.80;99.60
52034;DHT22;38045;52.988;6.536;2023-07-16T15:29:38;21.80;99.50
52034;DHT22;38045;52.988;6.536;2023-07-16T15:32:05;21.60;99.40
52034;DHT22;38045;52.988;6.536;2023-07-16T15:34:30;21.40;99.50
52034;DHT22;38045;52.988;6.536;2023-07-16T15:36:56;21.30;99.60